sensor_id;sensor_type;location;lat;lon;timestamp;temperature;humidity
14775;DHT22;7479;47.042;15.160;2023-06-14T09:01:40;14.70;99.90
14775;DHT22;7479;47.042;15.160;2023-06-14T09:06:46;14.70;99.90
14775;DHT22;7479;47.042;15.160;2023-06-14T09:11:44;14.90;99.90
14775;DHT22;7479;47.042;15.160;2023-06-14T09:16:38;15.10;99.90
14775;DHT22;7479;47.042;15.160;2023-06-14T09:21:35;15.30;99.90
14775;DHT22;7479;47.042;15.160;2023-06-14T09:26:29;15.50;99.90
14775;DHT22;7479;47.042;15.160;2023-06-14T09:31:22;16.00;99.90
14775;DHT22;7479;47.042;15.160;2023-06-14T09:36:20;16.20;99.90
14775;DHT22;7479;47.042;15.160;2023-06-14T09:41:15;16.60;99.90
14775;DHT22;7479;47.042;15.160;2023-06-14T09:46:09;17.10;99.90
14775;DHT22;7479;47.042;15.160;2023-06-14T09:51:03;17.40;99.90
14775;DHT22;7479;47.042;15.160;2023-06-14T09:55:58;17.80;99.90
14775;DHT22;7479;47.042;15.160;2023-06-14T10:00:54;18.50;99.90
14775;DHT22;7479;47.042;15.160;2023-06-14T10:05:49;19.20;99.90
14775;DHT22;7479;47.042;15.160;2023-06-14T10:10:43;18.30;99.90
14775;DHT22;7479;47.042;15.160;2023-06-14T10:15:52;17.90;99.90
14775;DHT22;7479;47.042;15.160;2023-06-14T10:20:55;17.80;99.90
14775;DHT22;7479;47.042;15.160;2023-06-14T10:25:55;18.00;99.90
14775;DHT22;7479;47.042;15.160;2023-06-14T10:31:05;18.70;99.90
14775;DHT22;7479;47.042;15.160;2023-06-14T10:36:28;18.90;99.90
14775;DHT22;7479;47.042;15.160;2023-06-14T10:41:23;18.70;99.90
14775;DHT22;7479;47.042;15.160;2023-06-14T10:46:18;19.10;99.90
14775;DHT22;7479;47.042;15.160;2023-06-14T10:51:20;18.70;99.90
14775;DHT22;7479;47.042;15.160;2023-06-14T10:56:27;19.00;99.90
14775;DHT22;7479;47.042;15.160;2023-06-14T11:01:32;19.20;99.90
14775;DHT22;7479;47.042;15.160;2023-06-14T11:11:52;19.70;99.90
14775;DHT22;7479;47.042;15.160;2023-06-14T11:16:48;19.60;99.90
14775;DHT22;7479;47.042;15.160;2023-06-14T11:21:42;20.20;99.90
14775;DHT22;7479;47.042;15.160;2023-06-14T11:26:37;20.30;99.90
14775;DHT22;7479;47.042;15.160;2023-06-14T11:31:32;20.20;99.90
14775;DHT22;7479;47.042;15.160;2023-06-14T11:36:26;20.10;99.90
14775;DHT22;7479;47.042;15.160;2023-06-14T11:41:24;19.80;99.90
14775;DHT22;7479;47.042;15.160;2023-06-14T11:46:18;19.80;99.90
14775;DHT22;7479;47.042;15.160;2023-06-14T11:51:19;20.10;99.90
14775;DHT22;7479;47.042;15.160;2023-06-14T11:56:12;20.40;99.90
14775;DHT22;7479;47.042;15.160;2023-06-14T12:01:09;20.20;99.90
14775;DHT22;7479;47.042;15.160;2023-06-14T12:06:04;20.20;99.90
14775;DHT22;7479;47.042;15.160;2023-06-14T12:11:01;20.20;99.90
14775;DHT22;7479;47.042;15.160;2023-06-14T12:15:56;20.50;99.90
14775;DHT22;7479;47.042;15.160;2023-06-14T12:20:50;20.20;99.90
14775;DHT22;7479;47.042;15.160;2023-06-14T12:25:43;19.90;99.90
14775;DHT22;7479;47.042;15.160;2023-06-14T12:30:40;19.80;99.90
14775;DHT22;7479;47.042;15.160;2023-06-14T12:35:33;19.90;99.90
14775;DHT22;7479;47.042;15.160;2023-06-14T12:40:27;20.10;99.90
14775;DHT22;7479;47.042;15.160;2023-06-14T12:45:20;20.10;99.90
14775;DHT22;7479;47.042;15.160;2023-06-14T12:50:16;20.90;99.90
14775;DHT22;7479;47.042;15.160;2023-06-14T12:55:11;20.70;99.90
14775;DHT22;7479;47.042;15.160;2023-06-14T13:00:05;20.20;99.90
14775;DHT22;7479;47.042;15.160;2023-06-14T13:04:59;20.00;99.90
14775;DHT22;7479;47.042;15.160;2023-06-14T13:09:57;19.70;99.90
14775;DHT22;7479;47.042;15.160;2023-06-14T13:14:50;19.50;99.90
14775;DHT22;7479;47.042;15.160;2023-06-14T13:19:43;19.60;99.90
14775;DHT22;7479;47.042;15.160;2023-06-14T13:24:37;19.80;99.90
14775;DHT22;7479;47.042;15.160;2023-06-14T13:29:32;20.00;99.90
14775;DHT22;7479;47.042;15.160;2023-06-14T13:34:28;20.30;99.90
14775;DHT22;7479;47.042;15.160;2023-06-14T13:39:21;20.40;99.90
14775;DHT22;7479;47.042;15.160;2023-06-14T13:44:15;20.60;99.90
14775;DHT22;7479;47.042;15.160;2023-06-14T13:49:12;20.60;99.90
14775;DHT22;7479;47.042;15.160;2023-06-14T13:54:05;20.50;99.90
14775;DHT22;7479;47.042;15.160;2023-06-14T13:58:59;20.30;99.90
14775;DHT22;7479;47.042;15.160;2023-06-14T14:03:53;20.30;99.90
14775;DHT22;7479;47.042;15.160;2023-06-14T14:08:47;20.00;99.90
14775;DHT22;7479;47.042;15.160;2023-06-14T14:13:41;19.90;99.90
14775;DHT22;7479;47.042;15.160;2023-06-14T14:18:35;19.80;99.90
14775;DHT22;7479;47.042;15.160;2023-06-14T14:23:29;20.10;99.90
14775;DHT22;7479;47.042;15.160;2023-06-14T14:28:24;20.40;99.90
14775;DHT22;7479;47.042;15.160;2023-06-14T14:33:17;20.40;99.90
14775;DHT22;7479;47.042;15.160;2023-06-14T14:38:11;20.70;99.90
14775;DHT22;7479;47.042;15.160;2023-06-14T14:43:04;20.50;99.90
14775;DHT22;7479;47.042;15.160;2023-06-14T14:48:00;20.60;99.90
14775;DHT22;7479;47.042;15.160;2023-06-14T14:52:54;20.80;99.90
14775;DHT22;7479;47.042;15.160;2023-06-14T14:57:48;21.00;99.90
14775;DHT22;7479;47.042;15.160;2023-06-14T15:02:41;21.20;99.90
14775;DHT22;7479;47.042;15.160;2023-06-14T15:07:36;21.70;99.90
14775;DHT22;7479;47.042;15.160;2023-06-14T15:12:31;22.60;99.90
14775;DHT22;7479;47.042;15.160;2023-06-14T15:17:25;22.90;99.90
14775;DHT22;7479;47.042;15.160;2023-06-14T15:22:18;23.00;99.90
14775;DHT22;7479;47.042;15.160;2023-06-14T15:27:13;23.20;99.90
14775;DHT22;7479;47.042;15.160;2023-06-14T15:32:07;23.90;99.90
14775;DHT22;7479;47.042;15.160;2023-06-14T15:37:01;23.80;99.90
14775;DHT22;7479;47.042;15.160;2023-06-14T15:41:55;24.20;99.90
14775;DHT22;7479;47.042;15.160;2023-06-14T15:46:50;24.30;99.90
14775;DHT22;7479;47.042;15.160;2023-06-14T15:51:43;24.60;99.80
14775;DHT22;7479;47.042;15.160;2023-06-14T15:56:36;24.80;99.00
14775;DHT22;7479;47.042;15.160;2023-06-14T16:01:30;24.60;99.80
14775;DHT22;7479;47.042;15.160;2023-06-14T16:06:25;24.20;98.70
14775;DHT22;7479;47.042;15.160;2023-06-14T16:11:18;23.70;99.40
14775;DHT22;7479;47.042;15.160;2023-06-14T16:16:12;23.00;99.90
14775;DHT22;7479;47.042;15.160;2023-06-14T16:21:05;22.10;99.90
14775;DHT22;7479;47.042;15.160;2023-06-14T16:26:02;21.60;99.90
14775;DHT22;7479;47.042;15.160;2023-06-14T16:30:56;21.30;99.90
14775;DHT22;7479;47.042;15.160;2023-06-14T16:35:49;21.40;99.90
14775;DHT22;7479;47.042;15.160;2023-06-14T16:40:42;21.30;99.90
14775;DHT22;7479;47.042;15.160;2023-06-14T16:45:37;21.10;99.90
14775;DHT22;7479;47.042;15.160;2023-06-14T16:50:31;21.00;99.90
14775;DHT22;7479;47.042;15.160;2023-06-14T16:55:27;21.30;99.90
14775;DHT22;7479;47.042;15.160;2023-06-14T17:00:21;21.90;99.90
14775;DHT22;7479;47.042;15.160;2023-06-14T17:05:16;22.60;99.90
14775;DHT22;7479;47.042;15.160;2023-06-14T17:10:09;22.50;99.90
14775;DHT22;7479;47.042;15.160;2023-06-14T17:15:04;21.90;99.90
14775;DHT22;7479;47.042;15.160;2023-06-14T17:19:58;21.40;99.90
14775;DHT22;7479;47.042;15.160;2023-06-14T17:24:53;20.80;99.90
14775;DHT22;7479;47.042;15.160;2023-06-14T17:29:47;20.40;99.90
14775;DHT22;7479;47.042;15.160;2023-06-14T17:34:40;20.20;99.90
14775;DHT22;7479;47.042;15.160;2023-06-14T17:39:33;20.10;99.90
14775;DHT22;7479;47.042;15.160;2023-06-14T17:44:29;20.10;99.90
14775;DHT22;7479;47.042;15.160;2023-06-14T17:49:23;19.90;99.90
14775;DHT22;7479;47.042;15.160;2023-06-14T17:54:18;19.80;99.90
14775;DHT22;7479;47.042;15.160;2023-06-14T17:59:11;19.60;99.90
14775;DHT22;7479;47.042;15.160;2023-06-14T18:04:06;19.30;99.90
14775;DHT22;7479;47.042;15.160;2023-06-14T18:09:00;19.20;99.90
14775;DHT22;7479;47.042;15.160;2023-06-14T18:13:53;19.00;99.90
14775;DHT22;7479;47.042;15.160;2023-06-14T18:18:46;18.90;99.90
14775;DHT22;7479;47.042;15.160;2023-06-14T18:23:42;18.80;99.90
14775;DHT22;7479;47.042;15.160;2023-06-14T18:28:38;18.70;99.90
14775;DHT22;7479;47.042;15.160;2023-06-14T18:33:32;18.60;99.90
14775;DHT22;7479;47.042;15.160;2023-06-14T18:38:25;18.50;99.90
14775;DHT22;7479;47.042;15.160;2023-06-14T18:43:20;18.30;99.90
14775;DHT22;7479;47.042;15.160;2023-06-14T18:48:13;18.20;99.90
14775;DHT22;7479;47.042;15.160;2023-06-14T18:53:07;18.10;99.90
14775;DHT22;7479;47.042;15.160;2023-06-14T18:58:01;18.00;99.90
14775;DHT22;7479;47.042;15.160;2023-06-14T19:02:55;17.80;99.90
14775;DHT22;7479;47.042;15.160;2023-06-14T19:07:49;17.70;99.90
14775;DHT22;7479;47.042;15.160;2023-06-14T19:12:42;17.60;99.90
14775;DHT22;7479;47.042;15.160;2023-06-14T19:17:35;17.60;99.90
14775;DHT22;7479;47.042;15.160;2023-06-14T19:22:30;17.50;99.90
14775;DHT22;7479;47.042;15.160;2023-06-14T19:27:24;17.50;99.90
14775;DHT22;7479;47.042;15.160;2023-06-14T19:32:18;17.40;99.90
14775;DHT22;7479;47.042;15.160;2023-06-14T19:37:12;17.30;99.90
14775;DHT22;7479;47.042;15.160;2023-06-14T19:42:07;17.10;99.90
14775;DHT22;7479;47.042;15.160;2023-06-14T19:47:00;17.00;99.90
14775;DHT22;7479;47.042;15.160;2023-06-14T19:51:54;17.00;99.90
14775;DHT22;7479;47.042;15.160;2023-06-14T19:56:48;16.90;99.90
14775;DHT22;7479;47.042;15.160;2023-06-14T20:01:43;16.70;99.90
14775;DHT22;7479;47.042;15.160;2023-06-14T20:06:36;16.60;99.90
14775;DHT22;7479;47.042;15.160;2023-06-14T20:11:30;16.60;99.90
14775;DHT22;7479;47.042;15.160;2023-06-14T20:16:23;16.50;99.90
14775;DHT22;7479;47.042;15.160;2023-06-14T20:21:18;16.40;99.90
14775;DHT22;7479;47.042;15.160;2023-06-14T20:26:12;16.40;99.90
14775;DHT22;7479;47.042;15.160;2023-06-14T20:31:05;16.30;99.90
14775;DHT22;7479;47.042;15.160;2023-06-14T20:35:59;16.00;99.90
14775;DHT22;7479;47.042;15.160;2023-06-14T20:40:54;15.80;99.90
14775;DHT22;7479;47.042;15.160;2023-06-14T20:45:50;15.70;99.90
14775;DHT22;7479;47.042;15.160;2023-06-14T20:50:47;15.70;99.90
14775;DHT22;7479;47.042;15.160;2023-06-14T20:55:40;15.60;99.90
14775;DHT22;7479;47.042;15.160;2023-06-14T21:00:35;15.60;99.90
14775;DHT22;7479;47.042;15.160;2023-06-14T21:05:29;15.50;99.90
14775;DHT22;7479;47.042;15.160;2023-06-14T21:10:23;15.50;99.90
14775;DHT22;7479;47.042;15.160;2023-06-14T21:15:17;15.40;99.90
14775;DHT22;7479;47.042;15.160;2023-06-14T21:20:12;15.40;99.90
14775;DHT22;7479;47.042;15.160;2023-06-14T21:25:06;15.40;99.90
14775;DHT22;7479;47.042;15.160;2023-06-14T21:30:00;15.30;99.90
